createdAt,value
2023-03-01T00:01:08.298Z,131.97
2023-03-01T00:03:35.089Z,126.57
2023-03-01T00:06:02.819Z,121.50
2023-03-01T00:08:30.585Z,121.60
2023-03-01T00:11:07.804Z,127.40
2023-03-01T00:13:35.101Z,129.80
2023-03-01T00:16:10.633Z,137.27
2023-03-01T00:18:36.837Z,129.60
2023-03-01T00:21:03.510Z,138.00
2023-03-01T00:23:29.908Z,128.73
2023-03-01T00:25:56.682Z,129.30
2023-03-01T00:28:22.972Z,117.60
2023-03-01T00:30:49.498Z,131.70
2023-03-01T00:33:15.708Z,128.77
2023-03-01T00:35:42.626Z,144.03
2023-03-01T00:38:09.153Z,147.80
2023-03-01T00:40:36.670Z,148.93
2023-03-01T00:43:03.845Z,142.10
2023-03-01T00:45:31.485Z,140.83
2023-03-01T00:47:58.430Z,134.00
2023-03-01T00:50:25.341Z,131.37
2023-03-01T00:52:55.804Z,122.83
2023-03-01T00:55:22.772Z,121.87
2023-03-01T00:57:49.313Z,121.67
2023-03-01T01:00:16.404Z,118.90
2023-03-01T01:02:42.719Z,133.17
2023-03-01T01:05:09.447Z,125.50
2023-03-01T01:07:35.921Z,125.27
2023-03-01T01:10:02.912Z,128.33
2023-03-01T01:12:29.265Z,123.40
2023-03-01T01:14:56.725Z,121.83
2023-03-01T01:17:22.893Z,115.93
2023-03-01T01:19:49.564Z,117.87
2023-03-01T01:22:15.769Z,121.67
2023-03-01T01:24:43.282Z,115.03
2023-03-01T01:27:09.661Z,105.37
2023-03-01T01:29:36.199Z,113.70
2023-03-01T01:32:02.396Z,121.70
2023-03-01T01:34:28.885Z,112.87
2023-03-01T01:36:55.137Z,111.40
2023-03-01T01:39:22.649Z,118.03
2023-03-01T01:41:49.146Z,113.60
2023-03-01T01:44:27.376Z,126.83
2023-03-01T01:47:04.817Z,118.13
2023-03-01T01:49:37.808Z,126.07
2023-03-01T01:52:13.400Z,113.27
2023-03-01T01:54:57.729Z,130.90
2023-03-01T01:57:49.501Z,119.33
2023-03-01T02:00:22.242Z,110.10
2023-03-01T02:02:52.372Z,120.97
2023-03-01T02:05:35.318Z,109.50
2023-03-01T02:08:01.808Z,120.33
2023-03-01T02:10:29.384Z,118.43
2023-03-01T02:12:58.840Z,122.90
2023-03-01T02:15:26.825Z,119.83
2023-03-01T02:17:54.896Z,123.63
2023-03-01T02:20:32.386Z,105.67
2023-03-01T02:22:58.842Z,118.87
2023-03-01T02:25:32.397Z,117.30
2023-03-01T02:28:08.378Z,125.73
2023-03-01T02:30:35.162Z,121.17
2023-03-01T02:33:03.372Z,116.13
2023-03-01T02:35:34.817Z,117.40
2023-03-01T02:38:03.722Z,123.40
2023-03-01T02:40:31.704Z,120.53
2023-03-01T02:42:59.211Z,116.80
2023-03-01T02:45:27.557Z,118.63
2023-03-01T02:47:55.576Z,123.10
2023-03-01T02:50:31.256Z,116.43
2023-03-01T02:53:20.298Z,115.23
2023-03-01T02:55:47.007Z,108.47
2023-03-01T02:58:13.573Z,114.87
2023-03-01T03:00:47.138Z,103.90
2023-03-01T03:03:20.744Z,103.97
2023-03-01T03:05:48.640Z,109.70
2023-03-01T03:08:24.024Z,113.60
2023-03-01T03:10:51.792Z,113.00
2023-03-01T03:13:19.360Z,110.80
2023-03-01T03:15:46.137Z,118.43
2023-03-01T03:18:15.891Z,121.07
2023-03-01T03:20:44.106Z,118.13
2023-03-01T03:23:10.961Z,126.27
2023-03-01T03:25:37.995Z,136.53
2023-03-01T03:28:09.742Z,136.73
2023-03-01T03:30:41.650Z,132.37
2023-03-01T03:33:12.641Z,141.90
2023-03-01T03:35:49.393Z,136.47
2023-03-01T03:38:19.360Z,145.13
2023-03-01T03:40:48.551Z,142.50
2023-03-01T03:43:21.195Z,144.47
2023-03-01T03:45:50.539Z,144.37
2023-03-01T03:48:17.736Z,153.33
2023-03-01T03:50:49.759Z,156.77
2023-03-01T03:53:15.970Z,140.70
2023-03-01T03:55:44.741Z,146.60
2023-03-01T03:58:11.701Z,131.90
2023-03-01T04:00:40.911Z,133.77
2023-03-01T04:03:08.282Z,146.83
2023-03-01T04:05:36.546Z,133.17
2023-03-01T04:08:03.536Z,140.80
2023-03-01T04:10:33.188Z,131.63
2023-03-01T04:12:59.483Z,143.13
2023-03-01T04:15:27.257Z,135.07
2023-03-01T04:17:54.842Z,141.83
2023-03-01T04:20:27.207Z,142.77
2023-03-01T04:22:57.735Z,136.20
2023-03-01T04:25:24.458Z,142.20
2023-03-01T04:27:52.410Z,136.43
2023-03-01T04:30:19.016Z,134.67
2023-03-01T04:32:45.238Z,139.00
2023-03-01T04:35:11.739Z,133.67
2023-03-01T04:37:37.878Z,120.90
2023-03-01T04:40:13.170Z,114.80
2023-03-01T04:42:39.386Z,112.03
2023-03-01T04:45:13.184Z,132.47
2023-03-01T04:47:44.484Z,115.07
2023-03-01T04:50:13.127Z,119.10
2023-03-01T04:52:39.301Z,113.03
2023-03-01T04:55:06.528Z,109.23
2023-03-01T04:57:33.101Z,113.03
2023-03-01T05:00:02.076Z,107.70
2023-03-01T05:02:29.810Z,121.70
2023-03-01T05:04:57.850Z,113.77
2023-03-01T05:07:25.051Z,111.13
2023-03-01T05:09:53.099Z,119.77
2023-03-01T05:12:20.825Z,110.37
2023-03-01T05:14:47.320Z,124.43
2023-03-01T05:17:13.433Z,127.47
2023-03-01T05:19:42.851Z,119.57
2023-03-01T05:22:09.035Z,120.57
2023-03-01T05:24:36.224Z,121.67
2023-03-01T05:27:03.355Z,121.40
2023-03-01T05:29:31.753Z,118.20
2023-03-01T05:32:01.067Z,117.53
2023-03-01T05:34:30.729Z,124.53
2023-03-01T05:36:57.356Z,128.70
2023-03-01T05:39:26.428Z,128.47
2023-03-01T05:41:54.984Z,120.93
2023-03-01T05:44:22.146Z,123.13
2023-03-01T05:46:49.731Z,129.37
2023-03-01T05:49:16.920Z,118.90
2023-03-01T05:51:48.434Z,130.97
2023-03-01T05:54:15.087Z,122.60
2023-03-01T05:56:41.456Z,149.90
2023-03-01T05:59:08.736Z,132.97
2023-03-01T06:01:35.906Z,129.10
2023-03-01T06:04:03.314Z,131.97
2023-03-01T06:06:30.689Z,141.90
2023-03-01T06:09:00.426Z,132.93
2023-03-01T06:11:26.836Z,142.63
2023-03-01T06:13:53.577Z,142.97
2023-03-01T06:16:19.769Z,138.13
2023-03-01T06:18:46.523Z,133.47
2023-03-01T06:21:13.076Z,141.77
2023-03-01T06:23:39.832Z,143.77
2023-03-01T06:26:08.010Z,138.87
2023-03-01T06:28:35.490Z,153.27
2023-03-01T06:31:02.107Z,157.67
2023-03-01T06:33:28.727Z,149.50
2023-03-01T06:35:56.640Z,146.63
2023-03-01T06:38:24.567Z,151.17
2023-03-01T06:40:55.351Z,149.03
2023-03-01T06:43:22.399Z,157.13
2023-03-01T06:45:48.662Z,169.30
2023-03-01T06:48:15.532Z,152.47
2023-03-01T06:50:41.832Z,170.90
2023-03-01T06:53:08.390Z,168.80
2023-03-01T06:55:34.574Z,172.17
2023-03-01T06:58:02.755Z,158.90
2023-03-01T07:00:29.316Z,156.47
2023-03-01T07:02:59.191Z,156.17
2023-03-01T07:05:25.534Z,151.33
2023-03-01T07:07:54.053Z,153.90
2023-03-01T07:10:20.237Z,148.13
2023-03-01T07:12:47.114Z,148.40
2023-03-01T07:15:15.244Z,140.53
2023-03-01T07:17:41.805Z,142.40
2023-03-01T07:20:08.943Z,140.47
2023-03-01T07:22:35.563Z,137.67
2023-03-01T07:25:01.794Z,138.20
2023-03-01T07:27:28.417Z,128.87
2023-03-01T07:29:54.545Z,131.93
2023-03-01T07:32:21.156Z,126.47
2023-03-01T07:34:47.335Z,124.53
2023-03-01T07:37:14.179Z,124.90
2023-03-01T07:39:41.192Z,123.20
2023-03-01T07:42:08.361Z,115.20
2023-03-01T07:44:37.909Z,116.80
2023-03-01T07:47:05.404Z,117.63
2023-03-01T07:49:31.798Z,109.53
2023-03-01T07:51:58.801Z,118.80
2023-03-01T07:54:26.482Z,105.40
2023-03-01T07:56:55.133Z,95.93
2023-03-01T07:59:21.445Z,82.33
2023-03-01T08:01:48.243Z,79.33
2023-03-01T08:04:14.752Z,73.30
2023-03-01T08:06:41.567Z,63.50
2023-03-01T08:09:08.869Z,63.93
2023-03-01T08:11:35.540Z,69.83
2023-03-01T08:14:01.895Z,73.37
2023-03-01T08:16:28.999Z,64.67
2023-03-01T08:18:57.058Z,68.70
2023-03-01T08:21:23.973Z,68.77
2023-03-01T08:23:50.273Z,66.47
2023-03-01T08:26:19.624Z,67.63
2023-03-01T08:28:47.962Z,71.50
2023-03-01T08:31:20.687Z,72.67
2023-03-01T08:33:55.286Z,74.80
2023-03-01T08:36:26.813Z,64.83
2023-03-01T08:38:53.619Z,64.20
2023-03-01T08:41:20.496Z,64.93
2023-03-01T08:43:46.821Z,67.67
2023-03-01T08:46:13.731Z,64.63
2023-03-01T08:48:43.268Z,59.03
2023-03-01T08:51:16.542Z,66.00
2023-03-01T08:53:43.862Z,55.13
2023-03-01T08:56:11.348Z,57.70
2023-03-01T08:58:38.198Z,53.43
2023-03-01T09:01:09.671Z,55.83
2023-03-01T09:03:36.901Z,54.13
2023-03-01T09:06:04.906Z,49.13
2023-03-01T09:08:35.421Z,52.20
2023-03-01T09:11:03.925Z,48.10
2023-03-01T09:13:31.537Z,40.67
2023-03-01T09:16:04.072Z,40.07
2023-03-01T09:18:31.461Z,41.70
2023-03-01T09:21:07.633Z,43.57
2023-03-01T09:23:36.909Z,31.17
2023-03-01T09:26:04.078Z,28.07
2023-03-01T09:28:31.073Z,31.97
2023-03-01T09:31:02.280Z,31.63
2023-03-01T09:33:31.472Z,28.27
2023-03-01T09:36:00.207Z,27.87
2023-03-01T09:38:27.120Z,23.40
2023-03-01T09:40:53.850Z,21.37
2023-03-01T09:43:29.761Z,19.77
2023-03-01T09:46:03.784Z,17.40
2023-03-01T09:48:37.770Z,20.07
2023-03-01T09:51:13.094Z,26.73
2023-03-01T09:53:40.315Z,24.23
2023-03-01T09:56:33.535Z,24.20
2023-03-01T09:59:10.871Z,18.10
2023-03-01T10:02:00.694Z,18.33
2023-03-01T10:04:33.625Z,22.27
2023-03-01T10:07:10.135Z,16.10
2023-03-01T10:09:45.647Z,12.87
2023-03-01T10:12:23.681Z,15.00
2023-03-01T10:15:04.512Z,12.63
2023-03-01T10:17:38.002Z,14.47
2023-03-01T10:20:24.423Z,8.33
2023-03-01T10:22:52.794Z,10.30
2023-03-01T10:25:52.770Z,10.77
2023-03-01T10:28:42.513Z,11.23
2023-03-01T10:31:28.282Z,12.73
2023-03-01T10:33:57.362Z,15.03
2023-03-01T10:36:24.197Z,13.90
2023-03-01T10:38:57.299Z,11.60
2023-03-01T10:41:26.449Z,9.87
2023-03-01T10:43:54.554Z,11.63
2023-03-01T10:46:37.841Z,10.57
2023-03-01T10:49:18.715Z,7.03
2023-03-01T10:51:48.190Z,11.40
2023-03-01T10:54:19.955Z,12.23
2023-03-01T10:56:49.610Z,9.17
2023-03-01T10:59:38.009Z,12.60
2023-03-01T11:02:41.801Z,14.47
2023-03-01T11:05:15.444Z,13.40
2023-03-01T11:07:59.310Z,11.47
2023-03-01T11:10:33.935Z,11.23
2023-03-01T11:13:14.982Z,15.00
2023-03-01T11:15:42.593Z,8.47
2023-03-01T11:18:20.933Z,12.53
2023-03-01T11:20:51.270Z,13.20
2023-03-01T11:23:18.053Z,13.53
2023-03-01T11:26:11.430Z,12.33
2023-03-01T11:28:41.362Z,12.03
2023-03-01T11:31:15.183Z,12.90
2023-03-01T11:33:50.559Z,14.50
2023-03-01T11:36:40.837Z,13.53
2023-03-01T11:39:25.535Z,12.17
2023-03-01T11:42:22.907Z,11.70
2023-03-01T11:44:54.779Z,11.00
2023-03-01T11:47:46.560Z,11.23
2023-03-01T11:50:46.133Z,13.40
2023-03-01T11:53:22.018Z,10.23
2023-03-01T11:56:06.889Z,11.63
2023-03-01T11:58:39.465Z,13.87
2023-03-01T12:01:13.774Z,9.93
2023-03-01T12:03:56.113Z,9.33
2023-03-01T12:06:34.573Z,14.67
2023-03-01T12:09:27.696Z,13.57
2023-03-01T12:12:17.809Z,8.20
2023-03-01T12:14:44.767Z,9.90
2023-03-01T12:17:58.188Z,10.80
2023-03-01T12:20:28.746Z,9.03
2023-03-01T12:23:22.931Z,10.40
2023-03-01T12:25:55.529Z,11.60
2023-03-01T12:28:30.851Z,7.83
2023-03-01T12:31:12.638Z,8.57
2023-03-01T12:34:10.985Z,8.63
2023-03-01T12:36:49.690Z,10.97
2023-03-01T12:39:53.149Z,9.03
2023-03-01T12:42:30.160Z,11.50
2023-03-01T12:45:20.916Z,10.23
2023-03-01T12:48:17.937Z,15.13
2023-03-01T12:50:51.641Z,12.03
2023-03-01T12:53:25.986Z,11.47
2023-03-01T12:55:56.017Z,9.57
2023-03-01T12:58:47.282Z,10.23
2023-03-01T13:01:43.334Z,10.20
2023-03-01T13:04:27.242Z,10.20
2023-03-01T13:07:16.103Z,10.63
2023-03-01T13:10:04.336Z,9.43
2023-03-01T13:12:42.805Z,7.97
2023-03-01T13:15:39.999Z,9.27
2023-03-01T13:18:15.453Z,11.23
2023-03-01T13:20:42.233Z,8.27
2023-03-01T13:23:12.848Z,9.47
2023-03-01T13:26:00.700Z,8.70
2023-03-01T13:28:46.326Z,8.57
2023-03-01T13:31:16.369Z,9.77
2023-03-01T13:33:49.537Z,8.80
2023-03-01T13:36:28.361Z,7.90
2023-03-01T13:38:57.956Z,9.53
2023-03-01T13:41:50.350Z,7.37
2023-03-01T13:44:38.997Z,8.23
2023-03-01T13:47:14.152Z,11.57
2023-03-01T13:49:47.089Z,7.63
2023-03-01T13:52:59.556Z,8.27
2023-03-01T13:55:43.191Z,11.53
2023-03-01T13:58:21.344Z,7.53
2023-03-01T14:00:48.078Z,8.30
2023-03-01T14:03:16.203Z,13.77
2023-03-01T14:06:11.206Z,9.63
2023-03-01T14:08:43.658Z,6.67
2023-03-01T14:11:39.513Z,6.90
2023-03-01T14:14:40.823Z,9.67
2023-03-01T14:17:19.313Z,9.40
2023-03-01T14:19:48.668Z,9.00
2023-03-01T14:22:30.558Z,8.80
2023-03-01T14:25:05.263Z,10.67
2023-03-01T14:27:42.425Z,10.27
2023-03-01T14:30:22.271Z,8.00
2023-03-01T14:32:59.192Z,9.73
2023-03-01T14:35:32.045Z,8.07
2023-03-01T14:37:58.688Z,10.37
2023-03-01T14:40:34.747Z,8.27
2023-03-01T14:43:08.577Z,7.83
2023-03-01T14:45:35.715Z,7.47
2023-03-01T14:48:05.293Z,12.57
2023-03-01T14:50:35.386Z,7.90
2023-03-01T14:53:04.884Z,8.80
2023-03-01T14:55:41.052Z,9.47
2023-03-01T14:58:15.137Z,9.00
2023-03-01T15:00:53.149Z,8.50
2023-03-01T15:03:41.818Z,9.10
2023-03-01T15:06:09.374Z,8.93
2023-03-01T15:08:37.346Z,10.90
2023-03-01T15:11:14.373Z,9.50
2023-03-01T15:13:41.274Z,10.83
2023-03-01T15:16:17.147Z,9.50
2023-03-01T15:18:56.932Z,7.47
2023-03-01T15:21:28.087Z,7.77
2023-03-01T15:24:06.778Z,7.60
2023-03-01T15:26:40.114Z,9.47
2023-03-01T15:29:33.694Z,8.33
2023-03-01T15:32:04.861Z,9.20
2023-03-01T15:34:40.620Z,10.63
2023-03-01T15:37:50.244Z,12.50
2023-03-01T15:40:33.321Z,9.00
2023-03-01T15:43:06.655Z,8.30
2023-03-01T15:45:38.088Z,10.60
2023-03-01T15:48:15.626Z,11.77
2023-03-01T15:50:44.108Z,10.33
2023-03-01T15:53:15.488Z,12.27
2023-03-01T15:55:42.807Z,10.50
2023-03-01T15:58:18.989Z,12.63
2023-03-01T16:00:59.750Z,14.07
2023-03-01T16:03:28.430Z,11.27
2023-03-01T16:05:57.896Z,11.40
2023-03-01T16:08:24.835Z,9.60
2023-03-01T16:10:51.751Z,16.40
2023-03-01T16:13:18.402Z,17.40
2023-03-01T16:15:45.030Z,19.33
2023-03-01T16:18:12.127Z,12.90
2023-03-01T16:20:38.618Z,14.10
2023-03-01T16:23:07.529Z,10.60
2023-03-01T16:25:35.223Z,11.07
2023-03-01T16:28:05.190Z,9.87
2023-03-01T16:30:32.126Z,13.80
2023-03-01T16:32:59.072Z,23.70
2023-03-01T16:35:25.766Z,19.27
2023-03-01T16:37:54.367Z,17.93
2023-03-01T16:40:26.432Z,21.63
2023-03-01T16:43:03.515Z,26.10
2023-03-01T16:45:40.814Z,19.30
2023-03-01T16:48:07.576Z,20.93
2023-03-01T16:50:33.805Z,19.40
2023-03-01T16:53:00.512Z,19.07
2023-03-01T16:55:27.093Z,24.13
2023-03-01T16:57:53.840Z,28.13
2023-03-01T17:00:21.138Z,22.00
2023-03-01T17:02:52.353Z,24.50
2023-03-01T17:05:21.304Z,24.93
2023-03-01T17:07:48.333Z,25.60
2023-03-01T17:10:14.982Z,30.43
2023-03-01T17:12:41.822Z,26.20
2023-03-01T17:15:09.960Z,24.60
2023-03-01T17:17:36.675Z,32.17
2023-03-01T17:20:05.107Z,31.87
2023-03-01T17:22:36.748Z,27.27
2023-03-01T17:25:03.783Z,29.40
2023-03-01T17:27:35.738Z,27.83
2023-03-01T17:30:03.749Z,24.53
2023-03-01T17:32:30.348Z,29.43
2023-03-01T17:34:56.839Z,24.87
2023-03-01T17:37:24.100Z,30.10
2023-03-01T17:39:50.347Z,23.77
2023-03-01T17:42:17.029Z,26.97
2023-03-01T17:44:43.920Z,24.90
2023-03-01T17:47:11.089Z,25.57
2023-03-01T17:49:37.501Z,28.07
2023-03-01T17:52:04.357Z,21.60
2023-03-01T17:54:32.587Z,21.00
2023-03-01T17:56:59.892Z,26.47
2023-03-01T17:59:30.545Z,26.07
2023-03-01T18:01:57.857Z,25.67
2023-03-01T18:04:24.344Z,23.60
2023-03-01T18:06:51.212Z,32.07
2023-03-01T18:09:17.653Z,20.30
2023-03-01T18:11:46.804Z,28.00
2023-03-01T18:14:14.321Z,89.03
2023-03-01T18:16:41.311Z,177.90
2023-03-01T18:19:07.819Z,253.73
2023-03-01T18:21:34.907Z,291.20
2023-03-01T18:24:01.467Z,360.83
2023-03-01T18:26:28.643Z,201.27
2023-03-01T18:28:57.709Z,95.13
2023-03-01T18:31:25.334Z,68.27
2023-03-01T18:33:56.634Z,103.50
2023-03-01T18:36:32.582Z,128.37
2023-03-01T18:39:01.789Z,66.83
2023-03-01T18:41:29.940Z,75.87
2023-03-01T18:43:56.902Z,75.87
2023-03-01T18:46:24.538Z,88.00
2023-03-01T18:48:55.199Z,69.40
2023-03-01T18:51:25.510Z,61.10
2023-03-01T18:53:52.271Z,79.10
2023-03-01T18:56:19.177Z,76.00
2023-03-01T18:58:45.647Z,65.03
2023-03-01T19:01:21.042Z,106.27
2023-03-01T19:03:48.032Z,101.13
2023-03-01T19:06:15.286Z,86.60
2023-03-01T19:08:43.634Z,97.97
2023-03-01T19:11:17.981Z,90.13
2023-03-01T19:13:46.254Z,87.57
2023-03-01T19:16:17.761Z,89.00
2023-03-01T19:18:49.705Z,83.50
2023-03-01T19:21:19.231Z,78.83
2023-03-01T19:23:48.131Z,75.43
2023-03-01T19:26:18.437Z,70.43
2023-03-01T19:28:45.906Z,73.43
2023-03-01T19:31:15.539Z,64.70
2023-03-01T19:33:42.844Z,70.97
2023-03-01T19:36:12.187Z,69.70
2023-03-01T19:38:40.645Z,61.73
2023-03-01T19:41:17.234Z,60.87
2023-03-01T19:43:45.391Z,56.37
2023-03-01T19:46:13.032Z,62.20
2023-03-01T19:48:39.888Z,55.23
2023-03-01T19:51:08.374Z,67.37
2023-03-01T19:53:36.391Z,60.53
2023-03-01T19:56:03.800Z,58.20
2023-03-01T19:58:31.666Z,65.10
2023-03-01T20:01:00.068Z,60.87
2023-03-01T20:03:35.168Z,62.70
2023-03-01T20:06:10.593Z,79.57
2023-03-01T20:08:37.126Z,70.17
2023-03-01T20:11:06.679Z,67.90
2023-03-01T20:13:35.009Z,69.67
2023-03-01T20:16:02.643Z,64.77
2023-03-01T20:18:29.811Z,66.43
2023-03-01T20:20:58.507Z,68.10
2023-03-01T20:23:28.857Z,67.17
2023-03-01T20:26:14.493Z,67.13
2023-03-01T20:28:42.976Z,66.33
2023-03-01T20:31:11.638Z,65.27
2023-03-01T20:33:38.541Z,72.80
2023-03-01T20:36:07.317Z,73.57
2023-03-01T20:38:34.410Z,64.53
2023-03-01T20:41:04.668Z,74.63
2023-03-01T20:43:31.763Z,66.77
2023-03-01T20:46:02.091Z,77.97
2023-03-01T20:48:28.527Z,77.53
2023-03-01T20:50:56.117Z,83.70
2023-03-01T20:53:22.901Z,88.43
2023-03-01T20:55:50.025Z,88.57
2023-03-01T20:58:16.471Z,88.20
2023-03-01T21:00:43.350Z,98.27
2023-03-01T21:03:10.141Z,103.77
2023-03-01T21:05:37.174Z,100.00
2023-03-01T21:08:04.060Z,106.33
2023-03-01T21:10:32.897Z,97.30
2023-03-01T21:12:59.418Z,107.53
2023-03-01T21:15:29.435Z,93.60
2023-03-01T21:17:56.188Z,101.30
2023-03-01T21:20:24.302Z,108.47
2023-03-01T21:22:53.646Z,87.30
2023-03-01T21:25:22.478Z,100.67
2023-03-01T21:27:48.848Z,108.20
2023-03-01T21:30:15.758Z,109.37
2023-03-01T21:32:42.386Z,115.97
2023-03-01T21:35:09.289Z,118.27
2023-03-01T21:37:35.689Z,129.80
2023-03-01T21:40:04.078Z,149.70
2023-03-01T21:42:32.605Z,139.77
2023-03-01T21:44:59.301Z,135.17
2023-03-01T21:47:25.592Z,124.10
2023-03-01T21:49:52.345Z,129.27
2023-03-01T21:52:18.559Z,128.10
2023-03-01T21:54:45.400Z,120.07
2023-03-01T21:57:12.038Z,120.03
2023-03-01T21:59:38.815Z,118.30
2023-03-01T22:02:05.415Z,117.40
2023-03-01T22:04:32.355Z,100.03
2023-03-01T22:06:58.845Z,85.40
2023-03-01T22:09:25.903Z,93.43
2023-03-01T22:11:58.194Z,98.40
2023-03-01T22:14:25.856Z,102.70
2023-03-01T22:16:52.919Z,90.30
2023-03-01T22:19:21.244Z,85.07
2023-03-01T22:21:50.571Z,89.03
2023-03-01T22:24:19.255Z,85.77
2023-03-01T22:26:47.875Z,86.20
2023-03-01T22:29:24.352Z,92.73
2023-03-01T22:31:52.645Z,93.00
2023-03-01T22:34:20.810Z,100.10
2023-03-01T22:36:47.980Z,95.87
2023-03-01T22:39:16.353Z,96.17
2023-03-01T22:41:45.613Z,89.93
2023-03-01T22:44:18.005Z,92.27
2023-03-01T22:46:45.534Z,91.43
2023-03-01T22:49:12.572Z,104.07
2023-03-01T22:51:40.794Z,104.17
2023-03-01T22:54:08.166Z,79.73
2023-03-01T22:56:36.795Z,88.90
2023-03-01T22:59:08.892Z,93.53
2023-03-01T23:01:37.051Z,80.10
2023-03-01T23:04:04.117Z,88.20
2023-03-01T23:06:31.518Z,78.83
2023-03-01T23:09:00.673Z,98.53
2023-03-01T23:11:28.753Z,126.03
2023-03-01T23:13:55.530Z,100.20
2023-03-01T23:16:25.509Z,116.90
2023-03-01T23:18:53.786Z,143.27
2023-03-01T23:21:20.284Z,136.20
2023-03-01T23:23:46.699Z,140.70
2023-03-01T23:26:14.403Z,151.33
2023-03-01T23:28:41.232Z,128.10
2023-03-01T23:31:10.953Z,151.27
2023-03-01T23:33:37.317Z,160.20
2023-03-01T23:36:06.303Z,151.67
2023-03-01T23:38:32.862Z,147.70
2023-03-01T23:40:59.688Z,150.27
2023-03-01T23:43:26.230Z,132.67
2023-03-01T23:45:53.865Z,139.73
2023-03-01T23:48:20.395Z,143.57
2023-03-01T23:50:47.595Z,129.53
2023-03-01T23:53:17.156Z,118.57
2023-03-01T23:55:46.778Z,135.80
2023-03-01T23:58:13.220Z,132.27
